Arisaig, United Kingdom
Current Conditions -  °F | °C
As of 9:50 AM on Thursday 23 Oct 2014 (Local Time) from EGPU Reporting Station
Light Rain Light Rain  
Wind Chill: 54°   Ceiling: 400
Heat Index: 54°   Visibility: 1.9mi
Dew Point: 52°   Wind: 13mph
Humidity: 94%   Direction: 250°WSW
Pressure: 29.68"   Gusts: NA
Location:  56.91°N, 5.84°W
Report Text: EGPU 230850Z 25011KT 210V280 3100 -RADZ OVC004 12/11 Q1005
Loading
Personal Weather Stations






























Interactive Weather Map
Tropical Storm Tracking
New forecast layout! Learn more

10-Day Weather Forecast

Advertisements
Track Severe Weather on mobile